Time;durP1;ratioP1;P1;durP2;ratioP2;P2;SDS_P1;SDS_P2;PMS_P1;PMS_P2;Temp;Humidity;BMP_temperature;BMP_pressure;BME280_temperature;BME280_humidity;BME280_pressure;Samples;Min_cycle;Max_cycle;Signal;HPM_P1;HPM_P2
2021/10/25 00:02:00;;;;;;;21.33;10.70;;;;;;;3.61;74.36;101536.62;1744441;82;21011;-76
2021/10/25 00:04:26;;;;;;;23.07;11.08;;;;;;;3.58;74.35;101539.45;1744677;82;20944;-76
2021/10/25 00:06:52;;;;;;;35.38;11.78;;;;;;;3.56;74.37;101533.41;1744770;82;20978;-76
2021/10/25 00:09:18;;;;;;;25.43;10.63;;;;;;;3.52;74.37;101523.06;1744482;81;21740;-76
2021/10/25 00:11:44;;;;;;;22.95;10.93;;;;;;;3.55;74.38;101535.70;1750708;81;20986;-76
2021/10/25 00:14:11;;;;;;;27.30;11.50;;;;;;;3.52;74.41;101531.44;1750744;82;21013;-76
2021/10/25 00:16:38;;;;;;;26.48;11.03;;;;;;;3.50;74.42;101535.51;1750802;82;21033;-76
2021/10/25 00:19:04;;;;;;;22.07;11.28;;;;;;;3.51;74.45;101531.94;1749355;82;21137;-76
2021/10/25 00:21:31;;;;;;;28.20;11.90;;;;;;;3.50;74.45;101532.88;1744764;81;21015;-76
2021/10/25 00:23:57;;;;;;;26.17;10.53;;;;;;;3.49;74.46;101531.17;1744573;82;21066;-76
2021/10/25 00:26:23;;;;;;;24.18;10.82;;;;;;;3.47;74.48;101533.07;1744748;81;21055;-76
2021/10/25 00:28:49;;;;;;;26.85;10.65;;;;;;;3.45;74.47;101525.71;1744533;81;21066;-76
2021/10/25 00:31:15;;;;;;;26.87;11.78;;;;;;;3.44;74.50;101524.50;1744571;82;21140;-76
2021/10/25 00:33:41;;;;;;;22.37;10.30;;;;;;;3.38;74.50;101517.81;1744493;82;21528;-76
2021/10/25 00:36:09;;;;;;;24.25;10.65;;;;;;;3.36;74.52;101519.71;1744579;81;21036;-75
2021/10/25 00:38:36;;;;;;;29.25;12.20;;;;;;;3.33;74.53;101517.27;1744637;81;20951;-76
2021/10/25 00:41:02;;;;;;;24.77;10.98;;;;;;;3.31;74.54;101523.09;1744214;82;21066;-76
2021/10/25 00:43:29;;;;;;;30.45;12.33;;;;;;;3.27;74.56;101516.81;1744440;82;21138;-76
2021/10/25 00:45:55;;;;;;;27.00;11.60;;;;;;;3.24;74.58;101515.19;1744521;82;20979;-76
2021/10/25 00:48:21;;;;;;;27.37;12.03;;;;;;;3.21;74.59;101510.12;1744714;81;21543;-76
2021/10/25 00:50:47;;;;;;;29.40;12.47;;;;;;;3.17;74.62;101504.66;1744541;82;20988;-76
2021/10/25 00:53:13;;;;;;;35.68;12.70;;;;;;;3.13;74.62;101496.56;1744574;82;20975;-76
2021/10/25 00:55:40;;;;;;;27.00;11.80;;;;;;;3.10;74.64;101505.16;1744387;81;21106;-76
2021/10/25 00:58:07;;;;;;;29.35;12.73;;;;;;;3.07;74.66;101496.95;1744024;82;21475;-76
2021/10/25 01:00:33;;;;;;;39.35;12.95;;;;;;;3.05;74.66;101496.68;1744677;82;21086;-76
2021/10/25 01:03:00;;;;;;;31.80;12.30;;;;;;;3.02;74.67;101491.14;1744646;82;21012;-76
2021/10/25 01:05:27;;;;;;;30.82;11.38;;;;;;;3.00;74.70;101490.37;1744669;81;21024;-76
2021/10/25 01:07:54;;;;;;;33.53;11.88;;;;;;;2.98;74.71;101486.99;1744711;82;21151;-76
2021/10/25 01:10:20;;;;;;;28.83;12.55;;;;;;;2.96;74.72;101494.13;1747312;81;21007;-76
2021/10/25 01:12:48;;;;;;;31.60;12.37;;;;;;;2.94;74.74;101490.75;1750929;81;21561;-76
2021/10/25 01:15:15;;;;;;;28.25;11.73;;;;;;;2.89;74.76;101492.81;1719508;82;21010;-75
2021/10/25 01:17:41;;;;;;;25.95;11.65;;;;;;;2.82;74.77;101480.95;1750970;81;21011;-76
2021/10/25 01:20:08;;;;;;;32.78;12.73;;;;;;;2.75;74.81;101487.53;1750395;82;21136;-76
2021/10/25 01:22:34;;;;;;;38.55;13.72;;;;;;;2.69;74.83;101476.06;1750639;82;21056;-76
2021/10/25 01:25:01;;;;;;;36.17;13.50;;;;;;;2.63;74.87;101481.72;1750919;81;21458;-75
2021/10/25 01:27:27;;;;;;;32.33;12.85;;;;;;;2.57;74.92;101486.86;1750821;81;20991;-75
2021/10/25 01:29:53;;;;;;;31.97;13.80;;;;;;;2.51;74.93;101481.51;1750691;81;21054;-75
2021/10/25 01:32:19;;;;;;;28.62;12.07;;;;;;;2.45;74.98;101476.63;1750987;82;21001;-75
2021/10/25 01:34:46;;;;;;;32.55;14.40;;;;;;;2.40;75.01;101472.08;1751141;82;20927;-76
2021/10/25 01:37:12;;;;;;;33.73;13.95;;;;;;;2.34;75.04;101469.83;1750594;80;21655;-76
2021/10/25 01:39:38;;;;;;;31.50;13.18;;;;;;;2.29;75.08;101469.23;1751037;82;20995;-76
2021/10/25 01:42:04;;;;;;;31.60;14.20;;;;;;;2.24;75.12;101473.95;1750599;82;21038;-75
2021/10/25 01:44:30;;;;;;;34.88;15.05;;;;;;;2.20;75.17;101468.48;1750612;82;21116;-76
2021/10/25 01:46:56;;;;;;;32.42;14.30;;;;;;;2.15;75.21;101459.14;1749916;80;20971;-76
2021/10/25 01:49:22;;;;;;;31.20;13.32;;;;;;;2.10;75.23;101455.49;1781865;80;21053;-75
2021/10/25 01:51:48;;;;;;;36.00;14.63;;;;;;;2.07;75.30;101455.67;1779682;80;20944;-76
2021/10/25 01:54:14;;;;;;;35.30;14.58;;;;;;;2.05;75.32;101447.01;1781907;80;21439;-75
2021/10/25 01:56:42;;;;;;;35.58;14.73;;;;;;;2.06;75.37;101453.97;1785150;80;21525;-76
2021/10/25 01:59:08;;;;;;;42.40;15.80;;;;;;;2.05;75.39;101442.21;1789213;80;20966;-76
2021/10/25 02:01:34;;;;;;;36.17;15.45;;;;;;;2.03;75.42;101436.20;1789979;80;20989;-76
2021/10/25 02:04:02;;;;;;;38.95;14.50;;;;;;;2.02;75.49;101435.35;1790160;80;20977;-76
2021/10/25 02:06:29;;;;;;;40.20;15.98;;;;;;;1.99;75.52;101432.91;1790154;80;20989;-76
2021/10/25 02:08:55;;;;;;;43.95;15.32;;;;;;;1.97;75.56;101434.30;1790195;80;21487;-76
2021/10/25 02:11:21;;;;;;;35.65;14.13;;;;;;;1.93;75.60;101426.70;1789983;80;20973;-75
2021/10/25 02:13:47;;;;;;;41.58;16.60;;;;;;;1.88;75.64;101418.22;1790067;80;20939;-76
2021/10/25 02:16:14;;;;;;;33.73;15.75;;;;;;;1.87;75.67;101415.20;1766749;80;20991;-76
2021/10/25 02:18:41;;;;;;;35.90;15.68;;;;;;;1.86;75.71;101420.10;1725160;83;21120;-75
2021/10/25 02:21:07;;;;;;;34.13;15.15;;;;;;;1.86;75.75;101403.01;1724990;83;21101;-75
2021/10/25 02:23:33;;;;;;;34.67;14.30;;;;;;;1.84;75.76;101402.23;1724946;83;21014;-75
2021/10/25 02:25:59;;;;;;;37.48;14.20;;;;;;;1.84;75.82;101408.81;1694621;84;21035;-76
2021/10/25 02:28:25;;;;;;;31.33;13.40;;;;;;;1.83;75.85;101400.07;1724903;83;20954;-75
2021/10/25 02:30:52;;;;;;;32.35;14.45;;;;;;;1.80;75.88;101399.40;1694992;83;21007;-76
2021/10/25 02:33:20;;;;;;;34.27;15.10;;;;;;;1.79;75.91;101400.36;1725041;81;21111;-76
2021/10/25 02:35:46;;;;;;;38.60;14.65;;;;;;;1.77;75.95;101399.13;1724927;83;21085;-75
2021/10/25 02:38:12;;;;;;;37.53;15.15;;;;;;;1.77;75.98;101399.58;1724909;83;21070;-76
2021/10/25 02:40:38;;;;;;;61.88;23.87;;;;;;;1.74;76.01;101391.88;1694453;84;21046;-75
2021/10/25 02:43:05;;;;;;;35.58;14.55;;;;;;;1.72;76.05;101388.51;1724910;83;21022;-76
2021/10/25 02:45:31;;;;;;;38.23;16.25;;;;;;;1.68;76.08;101385.20;1694222;84;21111;-76
2021/10/25 02:47:57;;;;;;;29.90;14.85;;;;;;;1.68;76.11;101381.73;1724292;83;21561;-76
2021/10/25 02:50:25;;;;;;;32.23;14.90;;;;;;;1.65;76.12;101375.34;1754891;81;21002;-76
2021/10/25 02:52:51;;;;;;;54.27;20.68;;;;;;;1.62;76.16;101377.66;1754982;81;21540;-76
2021/10/25 02:55:17;;;;;;;41.45;19.32;;;;;;;1.60;76.20;101381.31;1754971;81;21006;-76
2021/10/25 02:57:43;;;;;;;40.83;14.43;;;;;;;1.55;76.23;101378.12;1755276;81;22413;-76
2021/10/25 03:00:11;;;;;;;33.67;14.35;;;;;;;1.51;76.26;101372.20;1755396;81;21001;-75
2021/10/25 03:02:37;;;;;;;31.95;13.68;;;;;;;1.47;76.28;101368.90;1755644;81;21049;-76
2021/10/25 03:05:05;;;;;;;32.78;16.02;;;;;;;1.44;76.33;101366.42;1733385;81;21573;-76
2021/10/25 03:07:31;;;;;;;32.13;15.60;;;;;;;1.40;76.37;101367.55;1728110;81;21046;-75
2021/10/25 03:09:58;;;;;;;35.35;15.10;;;;;;;1.37;76.40;101370.33;1728145;83;21153;-76
2021/10/25 03:12:24;;;;;;;34.18;15.50;;;;;;;1.34;76.42;101377.08;1727973;83;20998;-75
2021/10/25 03:14:51;;;;;;;37.15;15.20;;;;;;;1.33;76.49;101369.30;1728132;83;21526;-75
2021/10/25 03:17:17;;;;;;;29.40;14.33;;;;;;;1.32;76.52;101363.66;1734429;81;20989;-75
2021/10/25 03:19:44;;;;;;;29.48;13.68;;;;;;;1.32;76.54;101359.25;1755648;80;21006;-76
2021/10/25 03:22:12;;;;;;;31.30;14.58;;;;;;;1.33;76.57;101358.80;1755696;81;21144;-76
2021/10/25 03:24:38;;;;;;;30.25;14.13;;;;;;;1.34;76.61;101360.47;1755283;81;21042;-76
2021/10/25 03:27:04;;;;;;;32.45;14.18;;;;;;;1.36;76.64;101354.67;1755664;81;20990;-76
2021/10/25 03:29:30;;;;;;;32.00;13.35;;;;;;;1.35;76.70;101348.56;1755368;81;21009;-75
2021/10/25 03:31:56;;;;;;;37.78;13.85;;;;;;;1.38;76.73;101353.64;1743918;81;21030;-76
2021/10/25 03:34:22;;;;;;;28.60;12.43;;;;;;;1.41;76.76;101356.09;1727992;83;21642;-76
2021/10/25 03:36:50;;;;;;;29.50;13.15;;;;;;;1.42;76.80;101352.53;1727800;83;21144;-76
2021/10/25 03:39:20;;;;;;;30.65;13.35;;;;;;;1.44;76.83;101358.53;1728091;83;20990;-76
2021/10/25 03:41:46;;;;;;;33.33;14.60;;;;;;;1.46;76.88;101353.20;1727670;83;21006;-76
2021/10/25 03:44:19;;;;;;;37.33;16.12;;;;;;;1.46;76.91;101352.74;1727938;83;21065;-76
2021/10/25 03:46:59;;;;;;;30.00;15.35;;;;;;;1.47;76.95;101349.66;1729366;81;21387;-76
2021/10/25 03:51:49;;;;;;;28.47;13.20;;;;;;;1.47;77.00;101351.81;1677054;85;21573;-75
2021/10/25 03:54:33;;;;;;;31.12;12.73;;;;;;;1.48;77.04;101353.48;1691980;82;21011;-75
2021/10/25 03:57:11;;;;;;;28.92;12.55;;;;;;;1.48;77.07;101354.80;1698594;83;21070;-76
2021/10/25 04:12:51;;;;;;;27.30;12.40;;;;;;;1.50;77.13;101362.61;1754096;80;21502;-76
2021/10/25 04:26:25;;;;;;;29.85;12.43;;;;;;;1.45;77.29;101339.22;1728249;80;21754;-76
2021/10/25 04:28:44;;;;;;;28.50;11.97;;;;;;;1.43;77.30;101341.09;1779666;80;21014;-76
2021/10/25 04:31:10;;;;;;;31.70;11.53;;;;;;;1.42;77.31;101336.77;1781933;80;21483;-76
2021/10/25 04:33:36;;;;;;;26.40;11.90;;;;;;;1.41;77.34;101328.49;1781723;80;21710;-76
2021/10/25 04:36:03;;;;;;;24.12;9.95;;;;;;;1.40;77.34;101326.83;1781779;80;21472;-76
2021/10/25 04:38:29;;;;;;;30.68;13.03;;;;;;;1.39;77.33;101323.81;1781573;80;21718;-76
2021/10/25 04:40:55;;;;;;;33.15;15.65;;;;;;;1.39;77.37;101318.55;1781613;80;21049;-76
2021/10/25 04:43:21;;;;;;;33.55;12.70;;;;;;;1.36;77.36;101321.36;1777256;80;20979;-76
2021/10/25 04:45:47;;;;;;;32.30;13.28;;;;;;;1.35;77.39;101318.34;1750551;82;21038;-76
2021/10/25 04:48:13;;;;;;;29.72;11.73;;;;;;;1.32;77.37;101314.59;1776680;80;21045;-76
2021/10/25 04:50:39;;;;;;;29.92;12.53;;;;;;;1.32;77.43;101316.36;1781734;80;21018;-76
2021/10/25 04:53:05;;;;;;;27.02;12.30;;;;;;;1.28;77.42;101312.22;1781720;80;22195;-76
2021/10/25 04:55:31;;;;;;;31.73;12.07;;;;;;;1.24;77.46;101314.64;1781692;80;21029;-76
2021/10/25 04:57:57;;;;;;;31.97;12.58;;;;;;;1.17;77.48;101315.46;1781052;80;21141;-76
2021/10/25 05:00:23;;;;;;;29.48;12.90;;;;;;;1.13;77.51;101320.97;1781591;80;21034;-76
2021/10/25 05:02:50;;;;;;;27.60;11.50;;;;;;;1.09;77.52;101321.61;1781673;80;21853;-76
2021/10/25 05:05:16;;;;;;;27.73;11.97;;;;;;;1.03;77.55;101310.14;1781766;80;20964;-76
2021/10/25 05:07:42;;;;;;;31.15;13.28;;;;;;;0.99;77.54;101311.25;1781746;80;21521;-76
2021/10/25 05:10:09;;;;;;;31.35;13.10;;;;;;;0.96;77.55;101312.73;1768627;80;21556;-76
2021/10/25 05:12:35;;;;;;;30.45;12.15;;;;;;;0.90;77.56;101309.16;1777027;80;20963;-75
2021/10/25 05:15:01;;;;;;;30.65;12.03;;;;;;;0.86;77.58;101310.25;1750772;82;21165;-76
2021/10/25 05:17:27;;;;;;;32.15;12.53;;;;;;;0.82;77.62;101300.39;1756891;80;20982;-75
2021/10/25 05:19:53;;;;;;;38.95;13.55;;;;;;;0.80;77.60;101314.08;1756616;80;21128;-76
2021/10/25 05:22:20;;;;;;;24.82;12.63;;;;;;;0.77;77.63;101314.25;1765405;80;20998;-76
2021/10/25 05:24:46;;;;;;;30.72;13.60;;;;;;;0.70;77.64;101312.05;1750710;82;20982;-75
2021/10/25 05:27:13;;;;;;;31.52;12.18;;;;;;;0.63;77.67;101312.00;1759173;80;21537;-76
2021/10/25 05:29:41;;;;;;;34.38;15.32;;;;;;;0.57;77.68;101314.48;1781457;80;20971;-76
2021/10/25 05:32:09;;;;;;;34.60;17.27;;;;;;;0.54;77.70;101319.05;1782017;80;20988;-76
2021/10/25 05:34:35;;;;;;;33.75;15.65;;;;;;;0.48;77.68;101318.47;1760527;80;20993;-76
2021/10/25 05:37:01;;;;;;;40.38;16.45;;;;;;;0.44;77.70;101310.84;1750755;82;21011;-76
2021/10/25 05:39:28;;;;;;;43.02;18.40;;;;;;;0.39;77.72;101312.39;1697307;84;21260;-76
2021/10/25 05:41:54;;;;;;;41.60;15.95;;;;;;;0.37;77.76;101311.64;1750604;80;20980;-76
2021/10/25 05:44:21;;;;;;;35.52;16.15;;;;;;;0.35;77.77;101308.23;1697313;84;21033;-76
2021/10/25 05:46:47;;;;;;;50.05;18.55;;;;;;;0.34;77.79;101307.87;1755347;80;21053;-75
2021/10/25 05:49:14;;;;;;;30.50;14.23;;;;;;;0.32;77.81;101309.72;1755462;80;21053;-76
2021/10/25 05:51:40;;;;;;;56.15;20.77;;;;;;;0.33;77.85;101310.56;1745158;80;21476;-76
2021/10/25 05:54:06;;;;;;;52.85;21.48;;;;;;;0.32;77.87;101314.96;1770511;79;21525;-75
2021/10/25 05:56:33;;;;;;;34.83;15.20;;;;;;;0.30;77.90;101311.59;1752430;80;21013;-76
2021/10/25 05:58:59;;;;;;;33.10;15.30;;;;;;;0.30;77.91;101314.21;1750658;82;21025;-76
2021/10/25 06:01:34;;;;;;;34.30;15.98;;;;;;;0.31;77.94;101313.29;1750653;82;21042;-76
2021/10/25 06:04:17;;;;;;;35.98;15.13;;;;;;;0.32;77.96;101307.09;1750205;80;21140;-76
2021/10/25 06:06:26;;;;;;;57.55;22.67;;;;;;;0.33;77.99;101311.87;1748409;80;20951;-76
2021/10/25 06:08:53;;;;;;;88.87;30.10;;;;;;;0.35;78.00;101313.48;1773314;80;21030;-76
2021/10/25 06:11:19;;;;;;;175.40;49.60;;;;;;;0.37;78.01;101310.33;1780036;80;21026;-76
2021/10/25 06:13:45;;;;;;;233.45;66.22;;;;;;;0.38;78.03;101317.28;1752157;80;21087;-75
2021/10/25 06:16:13;;;;;;;379.80;101.22;;;;;;;0.45;78.05;101313.39;1771037;80;20989;-75
2021/10/25 06:18:40;;;;;;;168.25;48.80;;;;;;;0.78;77.91;101307.20;1747165;80;20983;-76
2021/10/25 06:21:07;;;;;;;111.45;38.02;;;;;;;0.90;77.86;101314.41;1753973;80;21022;-76
2021/10/25 06:23:33;;;;;;;118.33;37.42;;;;;;;1.04;77.88;101315.78;1755426;80;21077;-76
2021/10/25 06:26:00;;;;;;;44.70;17.32;;;;;;;1.29;77.87;101315.23;1744019;80;21017;-76
2021/10/25 06:28:26;;;;;;;62.45;24.85;;;;;;;1.48;77.87;101315.37;1718417;83;21071;-76
2021/10/25 06:31:01;;;;;;;83.42;39.25;;;;;;;1.72;77.92;101309.62;1668171;83;21535;-76
2021/10/25 06:33:28;;;;;;;57.08;29.20;;;;;;;1.90;78.01;101313.80;1756188;80;21007;-76
2021/10/25 06:36:02;;;;;;;74.27;35.75;;;;;;;2.21;78.05;101314.94;1749252;80;21049;-75
2021/10/25 06:38:30;;;;;;;52.53;24.43;;;;;;;2.39;78.10;101311.64;1750867;80;21009;-75
2021/10/25 06:40:52;;;;;;;38.30;16.50;;;;;;;2.61;78.15;101313.75;1748811;80;21233;-76
2021/10/25 06:43:18;;;;;;;31.50;16.20;;;;;;;2.81;78.20;101313.35;1695787;84;21065;-76
2021/10/25 06:45:44;;;;;;;32.98;16.50;;;;;;;2.95;78.19;101308.05;1749420;80;21449;-76
2021/10/25 06:48:10;;;;;;;45.10;18.90;;;;;;;3.09;78.21;101310.63;1747918;82;21062;-76
2021/10/25 06:50:39;;;;;;;43.60;17.12;;;;;;;3.29;78.21;101312.80;1748673;80;21045;-75
2021/10/25 06:53:06;;;;;;;36.53;16.52;;;;;;;3.42;78.20;101320.26;1770980;80;21541;-76
2021/10/25 06:55:34;;;;;;;32.70;13.83;;;;;;;3.57;78.20;101307.84;1751842;80;21048;-76
2021/10/25 06:58:01;;;;;;;32.10;14.60;;;;;;;3.69;78.13;101315.42;1750624;81;21511;-76
2021/10/25 07:00:27;;;;;;;32.83;14.13;;;;;;;3.86;78.06;101313.33;1760392;80;21006;-75
2021/10/25 07:02:53;;;;;;;25.62;11.38;;;;;;;4.05;78.01;101314.20;1751049;82;21015;-75
2021/10/25 07:05:19;;;;;;;26.90;10.65;;;;;;;4.19;77.90;101313.25;1750659;82;21092;-75
2021/10/25 07:07:45;;;;;;;17.80;9.75;;;;;;;4.30;77.78;101318.16;1750785;80;21022;-75
2021/10/25 07:10:11;;;;;;;32.28;9.30;;;;;;;4.44;77.68;101314.08;1750681;81;20994;-75
2021/10/25 07:12:39;;;;;;;20.85;8.93;;;;;;;4.59;77.59;101319.22;1750951;82;21474;-75
2021/10/25 07:15:07;;;;;;;21.75;10.48;;;;;;;4.73;77.50;101320.41;1750735;82;21021;-75
2021/10/25 07:20:20;;;;;;;42.80;18.07;;;;;;;5.03;77.27;101314.23;1750706;82;21640;-75
2021/10/25 08:04:15;;;;;;;114.70;56.18;;;;;;;6.23;74.44;101315.69;1758814;81;21010;-76
2021/10/25 08:06:32;;;;;;;97.50;43.28;;;;;;;6.35;74.28;101308.12;1754255;81;21001;-76
2021/10/25 08:11:47;;;;;;;34.38;16.82;;;;;;;6.56;73.95;101304.25;1758815;81;21124;-76
2021/10/25 08:14:13;;;;;;;44.27;21.40;;;;;;;6.74;73.78;101304.11;1758244;80;21037;-76
2021/10/25 08:16:47;;;;;;;30.17;12.88;;;;;;;6.90;73.61;101300.57;1758577;80;21044;-76
2021/10/25 08:19:30;;;;;;;18.50;8.98;;;;;;;7.02;73.47;101289.83;1758595;81;21474;-76
2021/10/25 08:22:04;;;;;;;22.25;11.53;;;;;;;7.15;73.32;101292.30;1759083;81;20981;-76
2021/10/25 08:24:35;;;;;;;22.82;11.63;;;;;;;7.28;73.12;101286.34;1758772;81;21096;-76
2021/10/25 08:27:04;;;;;;;21.23;8.18;;;;;;;7.39;72.97;101288.95;1758058;81;20982;-76
2021/10/25 08:29:32;;;;;;;16.15;7.87;;;;;;;7.48;72.82;101285.55;1758948;81;21005;-76
2021/10/25 08:34:47;;;;;;;16.55;7.33;;;;;;;7.62;72.45;101283.53;1758551;81;21053;-77
2021/10/25 08:39:52;;;;;;;15.93;7.40;;;;;;;7.76;72.16;101277.91;1758614;80;21049;-77
2021/10/25 08:42:21;;;;;;;16.75;6.65;;;;;;;7.84;71.94;101283.41;1758535;81;21060;-76
2021/10/25 08:44:53;;;;;;;18.00;9.20;;;;;;;7.90;71.76;101277.56;1759004;81;21065;-76
2021/10/25 08:47:21;;;;;;;14.47;8.40;;;;;;;7.98;71.61;101277.77;1758289;81;20982;-76
2021/10/25 08:49:45;;;;;;;17.15;7.70;;;;;;;8.07;71.45;101277.44;1758312;81;21836;-77
2021/10/25 08:52:12;;;;;;;16.52;7.40;;;;;;;8.14;71.29;101275.94;1758624;80;20998;-76
2021/10/25 08:54:38;;;;;;;19.02;8.18;;;;;;;8.21;71.13;101273.95;1758669;81;21106;-76
2021/10/25 08:57:04;;;;;;;18.62;8.88;;;;;;;8.24;70.93;101276.81;1758379;81;21026;-76
2021/10/25 08:59:30;;;;;;;26.82;9.95;;;;;;;8.24;70.79;101275.00;1758470;80;21009;-76
2021/10/25 09:02:10;;;;;;;26.15;10.75;;;;;;;8.29;70.66;101276.82;1758294;81;21129;-76
2021/10/25 09:04:36;;;;;;;14.47;8.93;;;;;;;8.39;70.49;101275.04;1758804;80;21439;-77
2021/10/25 09:07:03;;;;;;;12.82;7.33;;;;;;;8.52;70.29;101270.80;1758794;81;20986;-77
2021/10/25 09:09:29;;;;;;;15.13;7.58;;;;;;;8.62;70.12;101270.34;1758671;81;21509;-77
2021/10/25 09:12:09;;;;;;;15.60;7.20;;;;;;;8.73;69.98;101273.38;1758834;81;20974;-76
2021/10/25 09:14:35;;;;;;;15.05;7.90;;;;;;;8.82;69.82;101265.92;1758842;81;21815;-77
2021/10/25 09:17:07;;;;;;;15.38;9.05;;;;;;;8.89;69.64;101270.56;1758464;81;21042;-77
2021/10/25 09:19:34;;;;;;;12.85;6.20;;;;;;;8.95;69.46;101271.81;1758390;80;21048;-77
2021/10/25 09:22:11;;;;;;;20.55;6.78;;;;;;;9.01;69.26;101266.77;1758678;80;21422;-77
2021/10/25 09:24:38;;;;;;;13.20;5.87;;;;;;;9.11;69.10;101272.13;1758711;81;21053;-77
2021/10/25 09:27:07;;;;;;;12.53;5.55;;;;;;;9.23;68.89;101268.33;1758694;81;21123;-77
2021/10/25 09:29:37;;;;;;;11.73;4.97;;;;;;;9.26;68.69;101267.20;1758823;81;21026;-77
2021/10/25 09:32:11;;;;;;;14.13;6.00;;;;;;;9.29;68.50;101267.77;1758732;80;21010;-76
2021/10/25 09:34:48;;;;;;;11.90;6.03;;;;;;;9.35;68.29;101260.57;1757737;81;21049;-76
2021/10/25 09:37:14;;;;;;;15.40;5.22;;;;;;;9.39;68.07;101264.61;1756548;81;21494;-76
2021/10/25 09:39:46;;;;;;;12.85;6.03;;;;;;;9.44;67.88;101258.87;1758409;80;21033;-76
2021/10/25 09:50:53;;;;;;;8.10;3.77;;;;;;;9.53;66.89;101260.18;1736512;81;21104;-77
2021/10/25 09:53:32;;;;;;;10.95;3.52;;;;;;;9.49;66.68;101260.63;1758689;81;21145;-77
2021/10/25 09:55:58;;;;;;;8.80;3.57;;;;;;;9.56;66.48;101259.08;1758638;81;21585;-77
2021/10/25 09:58:27;;;;;;;9.43;3.95;;;;;;;9.61;66.26;101257.30;1758738;80;21226;-76
2021/10/25 10:00:53;;;;;;;8.05;3.42;;;;;;;9.65;66.11;101261.36;1758557;80;21497;-77
2021/10/25 10:03:20;;;;;;;8.08;3.25;;;;;;;9.68;65.96;101257.92;1758874;81;21065;-77
2021/10/25 10:05:49;;;;;;;17.67;5.80;;;;;;;9.72;65.75;101263.80;1758694;81;21147;-77
2021/10/25 10:08:14;;;;;;;12.15;3.87;;;;;;;9.76;65.54;101257.20;1758808;81;21037;-77
2021/10/25 10:10:40;;;;;;;10.13;4.37;;;;;;;9.81;65.32;101257.63;1758762;81;20985;-77
2021/10/25 10:13:07;;;;;;;7.37;3.37;;;;;;;9.87;65.16;101257.89;1759007;80;21458;-77
2021/10/25 10:15:38;;;;;;;7.60;3.85;;;;;;;9.86;64.95;101254.87;1758879;81;21494;-77
2021/10/25 10:18:16;;;;;;;9.55;3.62;;;;;;;9.90;64.73;101253.60;1758770;81;21018;-77
2021/10/25 10:20:42;;;;;;;10.43;4.00;;;;;;;9.99;64.56;101249.24;1729421;81;21565;-77
2021/10/25 10:23:13;;;;;;;9.15;3.80;;;;;;;10.00;64.32;101249.56;1758733;81;21489;-77
2021/10/25 10:25:51;;;;;;;9.05;4.25;;;;;;;10.05;64.12;101247.32;1758695;81;21001;-77
2021/10/25 10:28:34;;;;;;;12.23;4.65;;;;;;;10.08;63.93;101241.69;1758674;81;21065;-77
2021/10/25 10:31:11;;;;;;;11.30;4.45;;;;;;;10.14;63.67;101238.47;1759124;80;21933;-77
2021/10/25 10:33:46;;;;;;;12.53;4.08;;;;;;;10.14;63.46;101241.13;1758879;81;21038;-77
2021/10/25 10:36:27;;;;;;;13.28;4.42;;;;;;;10.17;63.31;101235.50;1758783;80;21365;-77
2021/10/25 10:39:09;;;;;;;10.95;5.22;;;;;;;10.19;63.16;101236.21;1758717;81;21553;-77
2021/10/25 10:41:45;;;;;;;9.50;4.35;;;;;;;10.20;62.93;101233.06;1731812;81;21002;-78
2021/10/25 10:44:14;;;;;;;15.00;5.15;;;;;;;10.28;62.75;101235.31;1758915;81;21178;-77
2021/10/25 10:46:56;;;;;;;8.68;3.85;;;;;;;10.35;62.56;101234.23;1758751;81;21021;-77
2021/10/25 10:49:42;;;;;;;8.53;3.52;;;;;;;10.42;62.38;101233.49;1758724;81;21045;-76
2021/10/25 10:55:29;;;;;;;11.97;6.20;;;;;;;10.46;61.92;101226.87;1758785;81;20998;-76
2021/10/25 11:00:40;;;;;;;12.70;6.15;;;;;;;10.66;61.68;101218.78;1758397;81;21021;-76
2021/10/25 11:03:17;;;;;;;14.40;6.45;;;;;;;10.69;61.54;101225.98;1758834;81;21483;-76
2021/10/25 11:05:46;;;;;;;12.78;6.80;;;;;;;10.71;61.42;101217.81;1758795;81;21033;-76
2021/10/25 11:08:16;;;;;;;15.85;7.75;;;;;;;10.75;61.33;101214.70;1759113;81;20994;-76
2021/10/25 11:10:46;;;;;;;11.88;5.87;;;;;;;10.80;61.27;101208.92;1758681;80;21085;-76
2021/10/25 11:13:19;;;;;;;15.20;7.00;;;;;;;10.85;61.21;101215.95;1759164;81;21026;-76
2021/10/25 11:16:36;;;;;;;16.02;6.72;;;;;;;10.90;61.18;101215.02;1752124;81;21006;-80
2021/10/25 11:18:58;;;;;;;18.40;7.22;;;;;;;10.87;61.07;101199.32;1718062;82;21541;-76
2021/10/25 11:21:31;;;;;;;18.65;9.28;;;;;;;10.85;60.87;101209.29;1702734;83;20995;-77
2021/10/25 11:24:05;;;;;;;18.27;7.75;;;;;;;10.89;60.81;101211.52;1652131;86;21639;-76
2021/10/25 11:26:37;;;;;;;20.55;8.45;;;;;;;10.87;60.67;101202.80;1687703;84;21052;-76
2021/10/25 11:29:24;;;;;;;22.13;8.68;;;;;;;10.84;60.55;101202.27;1709992;84;21001;-76
2021/10/25 11:31:55;;;;;;;16.82;7.20;;;;;;;10.84;60.50;101203.11;1709630;83;21525;-76
2021/10/25 11:34:25;;;;;;;14.25;6.40;;;;;;;10.83;60.38;101206.79;1681122;85;21002;-76
2021/10/25 11:37:16;;;;;;;105.85;53.60;;;;;;;10.85;60.30;101199.95;1680749;85;21156;-77
2021/10/25 11:39:56;;;;;;;20.68;13.20;;;;;;;10.79;60.16;101196.56;1652147;85;21522;-77
2021/10/25 11:42:23;;;;;;;21.00;9.55;;;;;;;10.81;60.05;101197.23;1681164;83;21061;-77
2021/10/25 11:44:51;;;;;;;64.10;21.73;;;;;;;10.85;59.92;101187.45;1652132;86;21018;-77
2021/10/25 11:47:25;;;;;;;56.75;19.77;;;;;;;10.95;59.80;101190.03;1681138;85;21077;-77
2021/10/25 11:50:00;;;;;;;56.60;18.95;;;;;;;11.03;59.66;101188.78;1651957;86;21163;-77
2021/10/25 11:52:46;;;;;;;61.98;16.60;;;;;;;11.13;59.53;101187.36;1680916;83;21050;-77
2021/10/25 11:55:16;;;;;;;12.30;5.20;;;;;;;11.16;59.36;101185.22;1681071;85;21041;-78
2021/10/25 11:57:53;;;;;;;9.83;5.12;;;;;;;11.12;59.09;101188.38;1651863;86;21089;-77
2021/10/25 12:00:21;;;;;;;17.80;7.00;;;;;;;11.04;58.77;101182.46;1680973;85;21022;-77
2021/10/25 12:02:47;;;;;;;88.87;36.90;;;;;;;11.07;58.58;101181.30;1651537;85;21336;-78
2021/10/25 12:05:23;;;;;;;30.80;11.35;;;;;;;11.11;58.39;101184.86;1680900;85;21018;-77
2021/10/25 12:07:50;;;;;;;26.70;13.98;;;;;;;11.19;58.28;101183.56;1651909;86;21609;-77
2021/10/25 12:10:17;;;;;;;11.75;6.30;;;;;;;11.30;58.17;101167.30;1680914;84;21010;-77
2021/10/25 12:12:43;;;;;;;18.92;10.03;;;;;;;11.30;57.98;101159.30;1652001;86;21098;-78
2021/10/25 12:15:16;;;;;;;10.95;5.75;;;;;;;11.24;57.76;101167.09;1680849;85;21449;-77
2021/10/25 12:17:42;;;;;;;16.67;5.62;;;;;;;11.21;57.58;101168.25;1673265;84;21053;-78
2021/10/25 12:20:11;;;;;;;13.78;7.05;;;;;;;11.20;57.42;101158.55;1733922;82;21015;-77
2021/10/25 12:22:41;;;;;;;10.58;5.50;;;;;;;11.24;57.28;101162.59;1705169;84;22308;-77
2021/10/25 12:25:07;;;;;;;11.93;5.25;;;;;;;11.30;57.16;101155.78;1739972;82;21034;-78
2021/10/25 12:27:38;;;;;;;12.53;6.15;;;;;;;11.36;57.05;101153.35;1734004;82;21157;-78
2021/10/25 12:30:13;;;;;;;16.45;6.22;;;;;;;11.31;56.87;101151.63;1704939;84;21042;-78
2021/10/25 12:32:51;;;;;;;13.15;6.30;;;;;;;11.40;56.82;101156.52;1739794;82;21053;-77
2021/10/25 12:35:38;;;;;;;14.25;7.72;;;;;;;11.52;56.72;101150.77;1734658;82;21045;-77
2021/10/25 12:38:09;;;;;;;17.82;9.38;;;;;;;11.61;56.53;101146.83;1679603;84;21025;-77
2021/10/25 12:40:44;;;;;;;16.67;8.55;;;;;;;11.68;56.42;101138.52;1739263;82;22091;-77
2021/10/25 12:43:11;;;;;;;19.92;8.38;;;;;;;11.76;56.33;101142.58;1734328;82;21035;-77
2021/10/25 12:45:40;;;;;;;21.57;8.83;;;;;;;11.77;56.22;101139.76;1704967;84;21053;-77
2021/10/25 12:48:05;;;;;;;17.37;7.97;;;;;;;11.75;56.13;101140.92;1739860;82;21605;-77
2021/10/25 12:50:36;;;;;;;16.32;9.45;;;;;;;11.71;56.06;101128.87;1734342;82;21554;-77
2021/10/25 12:53:07;;;;;;;16.05;7.62;;;;;;;11.74;56.00;101128.06;1704940;84;21090;-77
2021/10/25 12:55:34;;;;;;;16.37;8.40;;;;;;;11.74;55.88;101132.06;1740060;82;21041;-77
2021/10/25 12:58:01;;;;;;;13.85;7.05;;;;;;;11.74;55.80;101125.39;1734073;82;21014;-77
2021/10/25 13:00:29;;;;;;;16.70;6.70;;;;;;;11.75;55.70;101128.90;1704992;84;21058;-77